createdAt,value
2017-12-11T00:01:11.294Z,0.40
2017-12-11T00:03:38.953Z,0.40
2017-12-11T00:06:06.514Z,0.50
2017-12-11T00:08:34.083Z,0.40
2017-12-11T00:11:01.675Z,0.60
2017-12-11T00:13:29.227Z,0.40
2017-12-11T00:16:08.691Z,0.30
2017-12-11T00:18:36.270Z,0.40
2017-12-11T00:21:03.858Z,0.50
2017-12-11T00:23:31.409Z,0.30
2017-12-11T00:25:58.975Z,0.50
2017-12-11T00:28:26.579Z,0.30
2017-12-11T00:30:54.905Z,0.30
2017-12-11T00:33:22.495Z,0.30
2017-12-11T00:35:50.054Z,0.30
2017-12-11T00:38:17.643Z,0.30
2017-12-11T00:40:45.959Z,0.57
2017-12-11T00:43:13.667Z,0.40
2017-12-11T00:45:42.680Z,0.30
2017-12-11T00:48:10.254Z,0.50
2017-12-11T00:50:37.842Z,0.40
2017-12-11T00:53:05.399Z,0.43
2017-12-11T00:55:32.955Z,0.57
2017-12-11T00:58:00.589Z,0.33
2017-12-11T01:00:28.148Z,0.50
2017-12-11T01:02:55.746Z,0.40
2017-12-11T01:05:23.307Z,0.40
2017-12-11T01:07:51.023Z,0.40
2017-12-11T01:10:18.583Z,0.50
2017-12-11T01:12:46.146Z,0.50
2017-12-11T01:15:13.730Z,0.40
2017-12-11T01:17:41.338Z,0.40
2017-12-11T01:20:09.660Z,0.40
2017-12-11T01:22:37.300Z,0.40
2017-12-11T01:25:04.894Z,0.50
2017-12-11T01:27:32.618Z,0.50
2017-12-11T01:30:00.175Z,0.40
2017-12-11T01:32:27.751Z,0.47
2017-12-11T01:34:55.307Z,0.50
2017-12-11T01:37:22.899Z,0.60
2017-12-11T01:39:50.450Z,0.40
2017-12-11T01:42:18.143Z,0.50
2017-12-11T01:47:11.775Z,0.50
2017-12-11T01:49:39.358Z,0.60
2017-12-11T01:52:06.955Z,0.47
2017-12-11T01:54:34.609Z,0.40
2017-12-11T01:57:02.910Z,0.50
2017-12-11T01:59:30.475Z,0.53
2017-12-11T02:01:58.067Z,0.50
2017-12-11T02:04:25.634Z,0.50
2017-12-11T02:06:53.239Z,0.40
2017-12-11T02:09:20.798Z,0.50
2017-12-11T02:11:48.363Z,0.60
2017-12-11T02:14:16.020Z,0.60
2017-12-11T02:16:43.562Z,0.50
2017-12-11T02:19:11.151Z,0.40
2017-12-11T02:21:38.898Z,0.57
2017-12-11T02:24:06.459Z,0.50
2017-12-11T02:26:34.046Z,0.40
2017-12-11T02:29:01.608Z,0.50
2017-12-11T02:31:29.245Z,0.40
2017-12-11T02:33:56.839Z,0.47
2017-12-11T02:36:24.399Z,0.57
2017-12-11T02:38:51.959Z,0.40
2017-12-11T02:41:19.567Z,0.50
2017-12-11T02:43:47.229Z,0.60
2017-12-11T02:46:14.797Z,0.60
2017-12-11T02:48:42.346Z,0.53
2017-12-11T02:51:10.006Z,0.40
2017-12-11T02:53:37.574Z,0.40
2017-12-11T02:56:05.158Z,0.50
2017-12-11T02:58:32.711Z,0.50
2017-12-11T03:01:00.308Z,0.50
2017-12-11T03:03:28.637Z,0.50
2017-12-11T03:05:56.199Z,0.70
2017-12-11T03:08:23.791Z,0.60
2017-12-11T03:10:51.315Z,0.43
2017-12-11T03:13:18.906Z,0.50
2017-12-11T03:15:46.631Z,0.67
2017-12-11T03:18:14.207Z,0.60
2017-12-11T03:20:41.794Z,0.60
2017-12-11T03:23:10.176Z,0.93
2017-12-11T03:25:38.515Z,0.53
2017-12-11T03:28:06.142Z,0.50
2017-12-11T03:30:33.720Z,0.43
2017-12-11T03:33:01.370Z,0.37
2017-12-11T03:35:28.987Z,0.40
2017-12-11T03:37:57.430Z,0.50
2017-12-11T03:40:24.999Z,0.43
2017-12-11T03:42:52.575Z,0.40
2017-12-11T03:45:20.927Z,0.37
2017-12-11T03:47:48.502Z,0.77
2017-12-11T03:50:16.111Z,0.70
2017-12-11T03:52:43.660Z,0.73
2017-12-11T03:55:11.267Z,0.90
2017-12-11T03:57:38.889Z,1.27
2017-12-11T04:00:06.459Z,0.90
2017-12-11T04:02:34.046Z,0.80
2017-12-11T04:05:01.639Z,0.60
2017-12-11T04:07:30.031Z,1.00
2017-12-11T04:09:57.600Z,0.70
2017-12-11T04:12:25.157Z,0.80
2017-12-11T04:14:52.820Z,0.80
2017-12-11T04:17:20.374Z,0.93
2017-12-11T04:19:47.931Z,0.80
2017-12-11T04:22:15.552Z,1.23
2017-12-11T04:24:43.114Z,1.00
2017-12-11T04:27:10.690Z,1.10
2017-12-11T04:29:39.031Z,0.70
2017-12-11T04:32:06.627Z,0.70
2017-12-11T04:34:34.983Z,0.60
2017-12-11T04:37:02.539Z,0.60
2017-12-11T04:39:30.123Z,0.50
2017-12-11T04:41:58.454Z,0.67
2017-12-11T04:44:26.058Z,0.93
2017-12-11T04:46:53.631Z,0.80
2017-12-11T04:49:21.184Z,1.00
2017-12-11T04:51:48.790Z,0.80
2017-12-11T04:54:16.358Z,1.20
2017-12-11T04:56:43.987Z,1.20
2017-12-11T04:59:11.634Z,1.40
2017-12-11T05:01:39.296Z,1.20
2017-12-11T05:04:06.998Z,1.73
2017-12-11T05:06:34.583Z,1.77
2017-12-11T05:09:02.951Z,1.60
2017-12-11T05:11:31.283Z,2.10
2017-12-11T05:13:58.835Z,1.67
2017-12-11T05:16:26.596Z,1.60
2017-12-11T05:18:54.249Z,2.40
2017-12-11T05:21:21.966Z,2.60
2017-12-11T05:23:49.578Z,2.13
2017-12-11T05:26:17.193Z,2.60
2017-12-11T05:28:45.498Z,2.57
2017-12-11T05:31:13.163Z,3.73
2017-12-11T05:33:40.733Z,2.90
2017-12-11T05:36:08.288Z,4.20
2017-12-11T05:38:35.887Z,3.53
2017-12-11T05:41:03.435Z,3.80
2017-12-11T05:43:30.996Z,4.00
2017-12-11T05:45:58.614Z,4.33
2017-12-11T05:48:26.167Z,3.20
2017-12-11T05:50:53.771Z,4.20
2017-12-11T05:53:21.331Z,3.80
2017-12-11T05:55:48.949Z,3.40
2017-12-11T05:58:16.539Z,3.03
2017-12-11T06:00:44.090Z,4.10
2017-12-11T06:03:11.675Z,3.50
2017-12-11T06:05:39.209Z,4.43
2017-12-11T06:08:06.790Z,5.17
2017-12-11T06:10:34.372Z,3.77
2017-12-11T06:13:02.728Z,4.37
2017-12-11T06:15:30.474Z,4.00
2017-12-11T06:17:58.100Z,3.90
2017-12-11T06:20:25.694Z,4.10
2017-12-11T06:22:53.247Z,3.63
2017-12-11T06:25:20.838Z,4.33
2017-12-11T06:27:48.418Z,4.30
2017-12-11T06:30:16.047Z,3.93
2017-12-11T06:32:43.656Z,4.20
2017-12-11T06:35:11.214Z,4.87
2017-12-11T06:37:38.819Z,4.33
2017-12-11T06:40:06.386Z,4.90
2017-12-11T06:42:34.227Z,4.40
2017-12-11T06:45:01.787Z,3.57
2017-12-11T06:47:29.411Z,3.90
2017-12-11T06:49:57.075Z,4.67
2017-12-11T06:52:24.628Z,4.37
2017-12-11T06:54:52.210Z,4.90
2017-12-11T06:57:19.849Z,4.67
2017-12-11T06:59:47.429Z,4.10
2017-12-11T07:02:14.997Z,5.40
2017-12-11T07:04:42.593Z,7.63
2017-12-11T07:07:10.924Z,5.50
2017-12-11T07:09:38.474Z,5.33
2017-12-11T07:12:06.058Z,4.97
2017-12-11T07:14:33.613Z,5.53
2017-12-11T07:17:01.199Z,5.90
2017-12-11T07:19:29.515Z,6.90
2017-12-11T07:21:57.114Z,8.40
2017-12-11T07:24:24.710Z,7.10
2017-12-11T07:26:53.039Z,6.67
2017-12-11T07:29:20.631Z,6.77
2017-12-11T07:31:48.948Z,7.17
2017-12-11T07:34:16.530Z,7.47
2017-12-11T07:36:44.096Z,8.50
2017-12-11T07:39:11.675Z,2.43
2017-12-11T07:41:40.023Z,2.63
2017-12-11T07:44:07.580Z,0.83
2017-12-11T07:46:35.188Z,1.00
2017-12-11T07:49:03.521Z,1.00
2017-12-11T07:51:31.111Z,1.33
2017-12-11T07:53:59.443Z,1.77
2017-12-11T07:56:27.079Z,2.20
2017-12-11T07:58:54.639Z,2.53
2017-12-11T08:01:22.298Z,4.30
2017-12-11T08:03:49.880Z,3.07
2017-12-11T08:06:17.462Z,2.60
2017-12-11T08:08:45.042Z,3.97
2017-12-11T08:11:13.467Z,3.50
2017-12-11T08:13:41.059Z,3.83
2017-12-11T08:16:08.621Z,5.73
2017-12-11T08:18:36.255Z,4.13
2017-12-11T08:21:03.839Z,4.67
2017-12-11T08:23:31.468Z,5.03
2017-12-11T08:25:59.075Z,2.93
2017-12-11T08:28:27.390Z,4.43
2017-12-11T08:30:55.044Z,3.87
2017-12-11T08:33:22.590Z,2.80
2017-12-11T08:35:50.151Z,3.23
2017-12-11T08:38:17.723Z,3.20
2017-12-11T08:40:45.337Z,4.82
2017-12-11T08:43:13.040Z,4.13
2017-12-11T08:45:40.604Z,2.77
2017-12-11T08:48:08.186Z,3.50
2017-12-11T08:50:35.745Z,6.00
2017-12-11T08:53:03.302Z,5.87
2017-12-11T08:55:30.896Z,5.17
2017-12-11T08:57:59.223Z,4.33
2017-12-11T09:00:26.807Z,3.43
2017-12-11T09:02:54.387Z,2.20
2017-12-11T09:05:22.746Z,2.00
2017-12-11T09:07:50.362Z,3.53
2017-12-11T09:10:17.958Z,4.20
2017-12-11T09:12:45.518Z,3.57
2017-12-11T09:15:13.094Z,3.07
2017-12-11T09:17:40.780Z,3.27
2017-12-11T09:20:09.108Z,3.37
2017-12-11T09:22:36.688Z,2.43
2017-12-11T09:25:04.238Z,4.27
2017-12-11T09:27:31.854Z,2.20
2017-12-11T09:29:59.414Z,2.53
2017-12-11T09:32:26.984Z,1.83
2017-12-11T09:34:54.554Z,2.80
2017-12-11T09:37:22.127Z,2.17
2017-12-11T09:39:49.710Z,1.60
2017-12-11T09:42:18.026Z,2.63
2017-12-11T09:44:45.682Z,1.70
2017-12-11T09:47:13.230Z,1.70
2017-12-11T09:49:40.956Z,1.80
2017-12-11T09:52:08.623Z,2.37
2017-12-11T09:54:37.039Z,2.63
2017-12-11T09:57:04.638Z,2.20
2017-12-11T09:59:32.215Z,3.97
2017-12-11T10:01:59.828Z,2.63
2017-12-11T10:04:27.415Z,1.17
2017-12-11T10:06:54.983Z,2.43
2017-12-11T10:09:22.756Z,2.27
2017-12-11T10:11:50.327Z,2.10
2017-12-11T10:14:18.683Z,2.27
2017-12-11T10:16:46.275Z,1.17
2017-12-11T10:19:14.630Z,2.27
2017-12-11T10:21:42.982Z,1.70
2017-12-11T10:24:10.608Z,1.07
2017-12-11T10:26:38.395Z,1.63
2017-12-11T10:29:06.030Z,1.63
2017-12-11T10:31:33.631Z,1.03
2017-12-11T10:34:01.250Z,1.10
2017-12-11T10:36:28.840Z,1.37
2017-12-11T10:38:56.407Z,0.90
2017-12-11T10:41:23.998Z,1.90
2017-12-11T10:43:52.362Z,1.90
2017-12-11T10:46:19.920Z,1.57
2017-12-11T10:48:47.511Z,2.17
2017-12-11T10:51:15.144Z,1.57
2017-12-11T10:53:43.660Z,1.80
2017-12-11T10:56:11.222Z,1.80
2017-12-11T10:58:38.826Z,2.00
2017-12-11T11:01:06.598Z,1.13
2017-12-11T11:03:34.179Z,2.00
2017-12-11T11:06:01.751Z,1.70
2017-12-11T11:08:29.320Z,1.90
2017-12-11T11:10:56.994Z,1.97
2017-12-11T11:13:24.562Z,1.90
2017-12-11T11:15:52.138Z,1.80
2017-12-11T11:18:19.699Z,1.83
2017-12-11T11:20:47.432Z,1.87
2017-12-11T11:23:15.075Z,1.80
2017-12-11T11:25:42.626Z,1.93
2017-12-11T11:28:10.216Z,1.63
2017-12-11T11:30:37.782Z,2.00
2017-12-11T11:33:05.371Z,1.60
2017-12-11T11:35:33.688Z,1.87
2017-12-11T11:38:01.299Z,1.20
2017-12-11T11:40:28.905Z,1.90
2017-12-11T11:42:56.460Z,1.83
2017-12-11T11:45:24.058Z,1.70
2017-12-11T11:47:51.637Z,1.70
2017-12-11T11:50:19.236Z,2.20
2017-12-11T11:52:46.794Z,2.07
2017-12-11T11:55:14.363Z,1.80
2017-12-11T11:57:41.950Z,2.07
2017-12-11T12:00:09.574Z,2.37
2017-12-11T12:02:37.152Z,2.20
2017-12-11T12:05:04.726Z,2.60
2017-12-11T12:07:32.295Z,2.70
2017-12-11T12:09:59.931Z,2.03
2017-12-11T12:12:27.635Z,1.87
2017-12-11T12:14:56.122Z,2.60
2017-12-11T12:17:24.529Z,2.83
2017-12-11T12:19:52.169Z,3.23
2017-12-11T12:22:20.772Z,3.50
2017-12-11T12:24:48.323Z,4.20
2017-12-11T12:27:15.914Z,3.10
2017-12-11T12:29:43.475Z,3.73
2017-12-11T12:32:11.089Z,3.30
2017-12-11T12:34:38.942Z,3.60
2017-12-11T12:37:07.264Z,1.90
2017-12-11T12:39:34.950Z,3.33
2017-12-11T12:42:02.523Z,3.67
2017-12-11T12:44:30.231Z,3.20
2017-12-11T12:46:57.783Z,3.53
2017-12-11T12:49:25.374Z,3.80
2017-12-11T12:51:52.968Z,3.47
2017-12-11T12:54:21.331Z,3.50
2017-12-11T12:56:48.984Z,3.60
2017-12-11T12:59:16.567Z,4.00
2017-12-11T13:01:44.915Z,3.63
2017-12-11T13:04:12.495Z,3.37
2017-12-11T13:06:40.311Z,4.30
2017-12-11T13:09:08.027Z,4.33
2017-12-11T13:11:36.447Z,3.67
2017-12-11T13:14:04.155Z,3.30
2017-12-11T13:16:31.747Z,3.80
2017-12-11T13:18:59.322Z,4.33
2017-12-11T13:21:26.943Z,4.47
2017-12-11T13:23:55.354Z,3.80
2017-12-11T13:26:22.921Z,3.83
2017-12-11T13:28:50.675Z,4.47
2017-12-11T13:31:18.239Z,4.20
2017-12-11T13:33:45.820Z,4.47
2017-12-11T13:36:13.457Z,3.50
2017-12-11T13:38:41.045Z,3.60
2017-12-11T13:41:08.677Z,4.40
2017-12-11T13:43:36.270Z,5.27
2017-12-11T13:46:03.841Z,5.00
2017-12-11T13:48:31.392Z,5.77
2017-12-11T13:50:58.974Z,4.70
2017-12-11T13:53:27.304Z,4.23
2017-12-11T13:55:54.888Z,5.00
2017-12-11T13:58:22.443Z,5.30
2017-12-11T14:00:50.129Z,4.43
2017-12-11T14:03:18.447Z,4.70
2017-12-11T14:05:46.007Z,5.50
2017-12-11T14:08:13.591Z,6.13
2017-12-11T14:10:41.138Z,5.50
2017-12-11T14:13:08.981Z,4.27
2017-12-11T14:15:36.686Z,5.30
2017-12-11T14:18:04.276Z,5.37
2017-12-11T14:20:32.631Z,5.17
2017-12-11T14:23:00.194Z,5.03
2017-12-11T14:25:27.771Z,5.20
2017-12-11T14:27:56.232Z,5.47
2017-12-11T14:30:23.834Z,5.10
2017-12-11T14:32:51.408Z,5.40
2017-12-11T14:35:18.947Z,6.57
2017-12-11T14:37:46.554Z,6.83
2017-12-11T14:40:14.116Z,5.93
2017-12-11T14:42:41.698Z,6.50
2017-12-11T14:45:10.047Z,7.10
2017-12-11T14:47:37.602Z,8.37
2017-12-11T14:50:05.188Z,11.80
2017-12-11T14:52:33.636Z,10.60
2017-12-11T14:55:01.235Z,9.83
2017-12-11T14:57:29.563Z,8.43
2017-12-11T14:59:57.123Z,9.67
2017-12-11T15:02:24.704Z,10.10
2017-12-11T15:04:52.261Z,8.93
2017-12-11T15:07:19.900Z,9.40
2017-12-11T15:09:47.519Z,10.63
2017-12-11T15:12:15.163Z,8.63
2017-12-11T15:14:43.492Z,9.30
2017-12-11T15:17:11.054Z,9.10
2017-12-11T15:19:38.676Z,9.80
2017-12-11T15:22:06.247Z,10.90
2017-12-11T15:24:33.832Z,9.63
2017-12-11T15:27:01.398Z,10.10
2017-12-11T15:29:28.984Z,10.03
2017-12-11T15:31:57.499Z,9.20
2017-12-11T15:34:25.071Z,8.57
2017-12-11T15:36:52.710Z,9.07
2017-12-11T15:39:20.370Z,9.93
2017-12-11T15:41:48.040Z,10.17
2017-12-11T15:44:15.600Z,9.30
2017-12-11T15:46:43.180Z,9.50
2017-12-11T15:49:10.775Z,8.67
2017-12-11T15:51:39.103Z,9.97
2017-12-11T15:54:06.719Z,9.57
2017-12-11T15:56:35.047Z,9.47
2017-12-11T15:59:02.688Z,7.63
2017-12-11T16:01:30.368Z,4.23
2017-12-11T16:03:57.923Z,5.93
2017-12-11T16:06:25.504Z,5.17
2017-12-11T16:08:53.088Z,2.80
2017-12-11T16:11:21.482Z,1.80
2017-12-11T16:13:49.104Z,0.60
2017-12-11T16:16:17.423Z,0.93
2017-12-11T16:18:45.098Z,1.37
2017-12-11T16:21:12.670Z,1.10
2017-12-11T16:23:40.419Z,1.07
2017-12-11T16:26:08.084Z,1.50
2017-12-11T16:28:35.739Z,1.33
2017-12-11T16:31:03.288Z,1.00
2017-12-11T16:33:30.962Z,1.40
2017-12-11T16:35:58.564Z,0.80
2017-12-11T16:38:27.000Z,1.63
2017-12-11T16:40:54.607Z,1.30
2017-12-11T16:43:22.169Z,1.57
2017-12-11T16:45:49.783Z,1.93
2017-12-11T16:48:17.347Z,2.03
2017-12-11T16:50:44.947Z,1.60
2017-12-11T16:53:12.511Z,1.97
2017-12-11T16:55:40.109Z,1.50
2017-12-11T16:58:07.732Z,1.10
2017-12-11T17:00:36.077Z,1.90
2017-12-11T17:03:03.704Z,1.87
2017-12-11T17:05:31.262Z,1.53
2017-12-11T17:07:58.927Z,2.60
2017-12-11T17:10:26.543Z,1.00
2017-12-11T17:12:54.188Z,1.07
2017-12-11T17:15:21.751Z,1.40
2017-12-11T17:17:49.465Z,1.07
2017-12-11T17:20:17.021Z,0.80
2017-12-11T17:22:44.591Z,1.27
2017-12-11T17:25:12.187Z,1.00
2017-12-11T17:27:39.747Z,1.10
2017-12-11T17:30:07.383Z,1.37
2017-12-11T17:32:34.952Z,1.07
2017-12-11T17:35:02.559Z,0.60
2017-12-11T17:37:30.210Z,0.60
2017-12-11T17:39:58.623Z,0.50
2017-12-11T17:42:26.277Z,0.87
2017-12-11T17:44:53.843Z,0.80
2017-12-11T17:47:21.415Z,0.50
2017-12-11T17:49:49.053Z,0.50
2017-12-11T17:52:16.607Z,0.80
2017-12-11T17:54:44.210Z,0.50
2017-12-11T17:57:12.567Z,0.60
2017-12-11T17:59:40.159Z,0.70
2017-12-11T18:02:07.722Z,0.77
2017-12-11T18:04:35.396Z,0.63
2017-12-11T18:07:03.726Z,1.00
2017-12-11T18:09:31.297Z,0.57
2017-12-11T18:11:58.920Z,0.40
2017-12-11T18:14:26.507Z,0.77
2017-12-11T18:16:54.115Z,0.50
2017-12-11T18:19:21.736Z,0.60
2017-12-11T18:21:49.343Z,0.90
2017-12-11T18:24:17.018Z,0.87
2017-12-11T18:26:44.706Z,0.50
2017-12-11T18:29:12.329Z,0.60
2017-12-11T18:31:39.903Z,0.70
2017-12-11T18:34:07.533Z,1.03
2017-12-11T18:36:35.074Z,0.70
2017-12-11T18:39:03.597Z,0.63
2017-12-11T18:41:31.208Z,0.60
2017-12-11T18:43:58.807Z,0.70
2017-12-11T18:46:26.448Z,0.40
2017-12-11T18:48:54.847Z,0.80
2017-12-11T18:51:22.447Z,0.60
2017-12-11T18:53:50.051Z,1.13
2017-12-11T18:56:18.694Z,0.80
2017-12-11T18:58:46.244Z,0.77
2017-12-11T19:01:13.984Z,0.60
2017-12-11T19:03:41.574Z,0.50
2017-12-11T19:06:09.170Z,0.53
2017-12-11T19:08:37.523Z,0.40
2017-12-11T19:11:05.149Z,0.73
2017-12-11T19:13:32.752Z,0.60
2017-12-11T19:16:01.088Z,0.57
2017-12-11T19:18:28.687Z,0.70
2017-12-11T19:20:57.007Z,0.77
2017-12-11T19:23:24.584Z,0.80
2017-12-11T19:25:52.291Z,0.60
2017-12-11T19:28:20.810Z,0.40
2017-12-11T19:30:48.448Z,0.57
2017-12-11T19:33:16.035Z,0.70
2017-12-11T19:35:43.614Z,0.43
2017-12-11T19:38:11.199Z,0.40
2017-12-11T19:40:38.798Z,0.50
2017-12-11T19:43:06.431Z,0.43
2017-12-11T19:45:34.781Z,0.40
2017-12-11T19:48:02.538Z,0.50
2017-12-11T19:50:30.171Z,0.40
2017-12-11T19:52:57.732Z,0.40
2017-12-11T19:55:25.330Z,0.47
2017-12-11T19:57:52.908Z,0.30
2017-12-11T20:00:21.288Z,0.50
2017-12-11T20:02:49.641Z,0.50
2017-12-11T20:05:17.207Z,0.60
2017-12-11T20:07:45.627Z,0.43
2017-12-11T20:10:13.304Z,0.40
2017-12-11T20:12:40.948Z,0.53
2017-12-11T20:15:08.606Z,0.50
2017-12-11T20:17:36.167Z,0.60
2017-12-11T20:20:03.743Z,0.50
2017-12-11T20:22:31.332Z,0.40
2017-12-11T20:24:58.948Z,0.30
2017-12-11T20:27:26.523Z,0.50
2017-12-11T20:29:54.146Z,0.50
2017-12-11T20:32:21.729Z,0.30
2017-12-11T20:34:49.295Z,0.33
2017-12-11T20:37:16.897Z,0.40
2017-12-11T20:39:45.253Z,0.40
2017-12-11T20:42:12.846Z,0.40
2017-12-11T20:44:41.178Z,0.40
2017-12-11T20:47:08.815Z,0.60
2017-12-11T20:49:36.637Z,0.40
2017-12-11T20:52:04.994Z,0.50
2017-12-11T20:54:33.122Z,0.40
2017-12-11T20:57:01.193Z,0.30
2017-12-11T20:59:29.261Z,0.40
2017-12-11T21:01:57.337Z,0.30
2017-12-11T21:04:25.404Z,0.40
2017-12-11T21:06:53.577Z,0.40
2017-12-11T21:09:21.749Z,0.30
2017-12-11T21:11:49.855Z,0.30
2017-12-11T21:14:18.604Z,0.60
2017-12-11T21:16:46.572Z,0.40
2017-12-11T21:19:14.643Z,0.40
2017-12-11T21:21:42.635Z,0.30
2017-12-11T21:24:11.499Z,0.40
2017-12-11T21:26:39.467Z,0.40
2017-12-11T21:29:07.538Z,0.37
2017-12-11T21:31:35.610Z,0.40
2017-12-11T21:34:03.680Z,0.30
2017-12-11T21:36:31.850Z,0.60
2017-12-11T21:38:59.896Z,0.60
2017-12-11T21:41:28.005Z,0.40
2017-12-11T21:43:56.781Z,0.40
2017-12-11T21:46:24.956Z,0.60
2017-12-11T21:48:53.122Z,0.30
2017-12-11T21:51:21.191Z,0.40
2017-12-11T21:53:48.886Z,0.40
2017-12-11T21:56:16.471Z,0.40
2017-12-11T21:58:44.814Z,0.47
2017-12-11T22:01:12.429Z,0.40
2017-12-11T22:03:40.759Z,0.67
2017-12-11T22:06:08.364Z,0.30
2017-12-11T22:08:36.699Z,0.40
2017-12-11T22:11:04.298Z,0.37
2017-12-11T22:13:32.754Z,0.30
2017-12-11T22:16:00.335Z,1.13
2017-12-11T22:18:30.541Z,0.40
2017-12-11T22:20:58.943Z,0.40
2017-12-11T22:23:26.540Z,0.40
2017-12-11T22:25:54.107Z,0.30
2017-12-11T22:28:21.714Z,0.33
2017-12-11T22:30:49.289Z,0.30
2017-12-11T22:33:16.904Z,0.30
2017-12-11T22:35:44.471Z,0.30
2017-12-11T22:38:12.800Z,0.40
2017-12-11T22:40:40.404Z,0.40
2017-12-11T22:43:08.003Z,0.33
2017-12-11T22:45:35.663Z,0.50
2017-12-11T22:48:03.258Z,0.40
2017-12-11T22:50:30.839Z,0.37
2017-12-11T22:52:59.184Z,0.30
2017-12-11T22:55:26.755Z,0.30
2017-12-11T22:57:54.371Z,0.30
2017-12-11T23:00:29.821Z,0.37
2017-12-11T23:02:57.422Z,0.40
2017-12-11T23:05:25.003Z,0.40
2017-12-11T23:07:53.419Z,0.40
2017-12-11T23:10:21.015Z,0.30
2017-12-11T23:12:48.575Z,0.30
2017-12-11T23:15:16.135Z,0.60
2017-12-11T23:17:43.810Z,0.50
2017-12-11T23:20:11.409Z,0.30
2017-12-11T23:22:39.015Z,0.30
2017-12-11T23:25:06.629Z,0.40
2017-12-11T23:27:34.231Z,0.30
2017-12-11T23:30:01.796Z,0.40
2017-12-11T23:32:29.518Z,0.30
2017-12-11T23:34:57.168Z,0.40
2017-12-11T23:37:24.807Z,0.50
2017-12-11T23:39:53.118Z,0.50
2017-12-11T23:42:20.740Z,0.30
2017-12-11T23:44:49.065Z,0.40
2017-12-11T23:47:16.661Z,0.40
2017-12-11T23:49:45.082Z,0.30
2017-12-11T23:52:12.638Z,0.40
2017-12-11T23:54:40.224Z,0.30
2017-12-11T23:57:07.795Z,0.30
2017-12-11T23:59:35.373Z,0.30
